createdAt,value
2023-03-17T00:02:23.534Z,8.90
2023-03-17T00:05:30.082Z,8.92
2023-03-17T00:08:35.839Z,8.83
2023-03-17T00:11:37.611Z,8.82
2023-03-17T00:14:39.541Z,8.81
2023-03-17T00:17:42.429Z,8.69
2023-03-17T00:20:45.446Z,8.87
2023-03-17T00:23:51.738Z,8.92
2023-03-17T00:26:54.058Z,8.93
2023-03-17T00:29:55.775Z,8.80
2023-03-17T00:32:58.720Z,8.75
2023-03-17T00:36:01.433Z,8.81
2023-03-17T00:42:14.152Z,8.75
2023-03-17T00:45:16.721Z,8.85
2023-03-17T00:48:20.715Z,8.85
2023-03-17T00:51:23.423Z,8.89
2023-03-17T00:54:26.547Z,8.79
2023-03-17T00:57:28.761Z,8.90
2023-03-17T01:00:31.544Z,8.86
2023-03-17T01:03:34.408Z,8.87
2023-03-17T01:06:36.907Z,8.79
2023-03-17T01:09:41.565Z,8.94
2023-03-17T01:12:45.895Z,8.97
2023-03-17T01:15:49.180Z,8.97
2023-03-17T01:18:50.988Z,8.65
2023-03-17T01:21:52.875Z,8.44
2023-03-17T01:24:56.616Z,7.94
2023-03-17T01:27:59.611Z,7.56
2023-03-17T01:31:02.743Z,7.32
2023-03-17T01:34:06.161Z,7.10
2023-03-17T01:37:08.315Z,6.82
2023-03-17T01:40:15.692Z,6.69
2023-03-17T01:43:21.492Z,6.44
2023-03-17T01:46:27.671Z,6.33
2023-03-17T01:49:34.999Z,6.18
2023-03-17T01:52:39.687Z,6.17
2023-03-17T01:55:45.575Z,6.18
2023-03-17T01:58:51.569Z,6.18
2023-03-17T02:01:56.817Z,6.00
2023-03-17T02:05:03.165Z,5.95
2023-03-17T02:08:11.269Z,5.90
2023-03-17T02:11:15.287Z,5.79
2023-03-17T02:14:17.369Z,5.72
2023-03-17T02:17:19.830Z,5.67
2023-03-17T02:21:14.211Z,5.58
2023-03-17T02:24:22.682Z,5.55
2023-03-17T02:27:29.712Z,5.59
2023-03-17T02:30:33.067Z,5.48
2023-03-17T02:33:34.927Z,5.43
2023-03-17T02:36:37.324Z,5.60
2023-03-17T02:39:40.887Z,5.31
2023-03-17T02:42:42.697Z,5.33
2023-03-17T02:45:44.496Z,5.23
2023-03-17T02:48:47.740Z,5.01
2023-03-17T02:51:51.452Z,4.80
2023-03-17T02:54:54.707Z,4.64
2023-03-17T02:57:56.658Z,4.62
2023-03-17T03:00:58.607Z,4.59
2023-03-17T03:04:00.443Z,4.60
2023-03-17T03:07:02.785Z,4.41
2023-03-17T03:10:07.160Z,4.42
2023-03-17T03:13:12.320Z,4.35
2023-03-17T03:16:14.959Z,4.77
2023-03-17T03:19:17.570Z,4.39
2023-03-17T03:22:19.234Z,4.80
2023-03-17T03:25:22.445Z,4.80
2023-03-17T03:28:24.401Z,4.77
2023-03-17T03:31:27.066Z,4.51
2023-03-17T03:34:29.212Z,4.23
2023-03-17T03:37:31.226Z,4.06
2023-03-17T03:40:35.993Z,3.84
2023-03-17T03:43:37.768Z,3.78
2023-03-17T03:46:39.678Z,3.63
2023-03-17T03:49:41.499Z,3.44
2023-03-17T03:52:43.181Z,3.32
2023-03-17T03:55:46.787Z,3.40
2023-03-17T03:58:48.500Z,3.31
2023-03-17T04:01:50.468Z,3.18
2023-03-17T04:04:52.703Z,3.12
2023-03-17T04:07:54.833Z,3.11
2023-03-17T04:10:58.615Z,3.00
2023-03-17T04:14:00.933Z,2.82
2023-03-17T04:17:05.266Z,2.88
2023-03-17T04:20:08.269Z,2.92
2023-03-17T04:23:09.926Z,2.81
2023-03-17T04:26:13.636Z,2.80
2023-03-17T04:29:15.942Z,2.76
2023-03-17T04:32:17.746Z,2.74
2023-03-17T04:35:23.572Z,2.64
2023-03-17T04:38:25.342Z,2.56
2023-03-17T04:41:28.322Z,2.62
2023-03-17T04:44:30.063Z,2.52
2023-03-17T04:47:32.075Z,2.57
2023-03-17T04:50:34.621Z,2.61
2023-03-17T04:53:36.216Z,2.55
2023-03-17T04:56:41.067Z,2.48
2023-03-17T04:59:42.708Z,2.66
2023-03-17T05:02:44.401Z,2.44
2023-03-17T05:05:47.081Z,2.47
2023-03-17T05:08:49.196Z,2.74
2023-03-17T05:11:52.615Z,2.85
2023-03-17T05:14:54.378Z,2.72
2023-03-17T05:17:56.602Z,2.49
2023-03-17T05:20:58.349Z,2.40
2023-03-17T05:24:02.326Z,2.34
2023-03-17T05:27:05.621Z,2.38
2023-03-17T05:30:08.938Z,2.31
2023-03-17T05:33:10.957Z,2.21
2023-03-17T05:36:13.412Z,2.18
2023-03-17T05:39:17.550Z,1.99
2023-03-17T05:42:20.693Z,2.02
2023-03-17T05:45:22.841Z,2.03
2023-03-17T05:48:25.269Z,2.02
2023-03-17T05:51:27.723Z,1.96
2023-03-17T05:54:29.645Z,1.92
2023-03-17T05:57:33.005Z,1.85
2023-03-17T06:00:38.060Z,1.97
2023-03-17T06:03:40.046Z,1.96
2023-03-17T06:06:41.715Z,1.89
2023-03-17T06:09:43.493Z,1.79
2023-03-17T06:12:47.266Z,1.82
2023-03-17T06:15:51.783Z,1.92
2023-03-17T06:18:53.670Z,2.03
2023-03-17T06:21:55.949Z,2.03
2023-03-17T06:25:04.615Z,2.14
2023-03-17T06:28:07.652Z,2.27
2023-03-17T06:31:09.447Z,2.22
2023-03-17T06:34:12.044Z,2.23
2023-03-17T06:37:13.860Z,2.21
2023-03-17T06:40:16.233Z,2.36
2023-03-17T06:43:19.926Z,2.37
2023-03-17T06:46:21.620Z,2.39
2023-03-17T06:49:23.256Z,2.38
2023-03-17T06:52:25.267Z,2.40
2023-03-17T06:55:27.456Z,2.39
2023-03-17T06:58:33.505Z,2.53
2023-03-17T07:01:35.313Z,2.76
2023-03-17T07:04:38.060Z,2.76
2023-03-17T07:07:39.951Z,2.87
2023-03-17T07:10:42.176Z,3.00
2023-03-17T07:13:46.287Z,3.02
2023-03-17T07:16:48.498Z,3.01
2023-03-17T07:19:50.315Z,3.03
2023-03-17T07:22:52.277Z,3.08
2023-03-17T07:25:53.989Z,3.15
2023-03-17T07:28:57.157Z,3.45
2023-03-17T07:31:58.954Z,3.70
2023-03-17T07:35:00.842Z,3.95
2023-03-17T07:38:03.058Z,4.17
2023-03-17T07:41:09.651Z,4.27
2023-03-17T07:44:13.398Z,4.51
2023-03-17T07:47:15.039Z,4.58
2023-03-17T07:50:17.002Z,4.87
2023-03-17T07:53:19.138Z,5.11
2023-03-17T07:56:21.389Z,5.19
2023-03-17T07:59:24.461Z,5.44
2023-03-17T08:02:26.237Z,5.55
2023-03-17T08:05:28.280Z,5.72
2023-03-17T08:08:30.521Z,5.94
2023-03-17T08:11:33.186Z,6.02
2023-03-17T08:14:36.601Z,6.28
2023-03-17T08:17:39.621Z,6.54
2023-03-17T08:20:42.103Z,6.92
2023-03-17T08:23:43.927Z,7.15
2023-03-17T08:26:48.075Z,7.24
2023-03-17T08:29:51.640Z,7.42
2023-03-17T08:32:54.607Z,7.62
2023-03-17T08:35:56.487Z,7.68
2023-03-17T08:38:59.041Z,7.76
2023-03-17T08:42:00.901Z,7.85
2023-03-17T08:45:06.850Z,8.05
2023-03-17T08:48:08.433Z,8.14
2023-03-17T08:51:10.174Z,8.21
2023-03-17T08:54:12.793Z,8.22
2023-03-17T08:57:15.808Z,8.54
2023-03-17T09:00:21.029Z,8.69
2023-03-17T09:03:25.400Z,8.83
2023-03-17T09:06:27.684Z,8.93
2023-03-17T09:09:31.192Z,9.15
2023-03-17T09:12:34.229Z,9.45
2023-03-17T09:15:38.842Z,9.32
2023-03-17T09:18:41.292Z,9.81
2023-03-17T09:21:42.929Z,10.16
2023-03-17T09:24:45.568Z,10.44
2023-03-17T09:27:47.459Z,10.37
2023-03-17T09:30:50.947Z,10.39
2023-03-17T09:33:53.391Z,10.55
2023-03-17T09:36:55.233Z,10.51
2023-03-17T09:39:57.933Z,10.55
2023-03-17T09:43:16.651Z,10.77
2023-03-17T09:46:35.070Z,10.80
2023-03-17T09:49:42.421Z,10.98
2023-03-17T09:52:44.854Z,11.12
2023-03-17T09:55:51.956Z,11.61
2023-03-17T09:58:58.013Z,11.77
2023-03-17T10:02:01.707Z,12.10
2023-03-17T10:05:13.970Z,12.61
2023-03-17T10:08:31.385Z,12.37
2023-03-17T10:11:40.600Z,12.40
2023-03-17T10:14:54.303Z,12.50
2023-03-17T10:17:58.575Z,12.74
2023-03-17T10:21:04.396Z,13.00
2023-03-17T10:24:06.922Z,13.09
2023-03-17T10:27:13.626Z,13.41
2023-03-17T10:30:17.417Z,13.01
2023-03-17T10:33:21.694Z,13.43
2023-03-17T10:36:34.869Z,13.68
2023-03-17T10:39:45.959Z,13.84
2023-03-17T10:42:52.962Z,13.97
2023-03-17T10:45:58.991Z,13.92
2023-03-17T10:49:07.845Z,14.18
2023-03-17T10:52:21.165Z,14.59
2023-03-17T10:55:26.499Z,14.64
2023-03-17T10:58:41.713Z,14.81
2023-03-17T11:01:49.846Z,14.88
2023-03-17T11:04:59.405Z,14.54
2023-03-17T11:08:10.368Z,14.36
2023-03-17T11:11:24.629Z,14.84
2023-03-17T11:14:30.385Z,14.92
2023-03-17T11:17:39.798Z,15.05
2023-03-17T11:20:50.683Z,14.93
2023-03-17T11:23:52.828Z,15.25
2023-03-17T11:26:59.281Z,15.01
2023-03-17T11:30:27.852Z,15.00
2023-03-17T11:33:36.558Z,15.38
2023-03-17T11:36:50.390Z,15.52
2023-03-17T11:40:01.872Z,15.53
2023-03-17T11:43:23.348Z,15.58
2023-03-17T11:46:29.018Z,15.77
2023-03-17T11:49:36.108Z,15.85
2023-03-17T11:52:50.611Z,16.45
2023-03-17T11:55:58.052Z,16.40
2023-03-17T11:59:05.232Z,16.19
2023-03-17T12:02:20.392Z,16.35
2023-03-17T12:05:25.067Z,16.17
2023-03-17T12:08:37.749Z,15.83
2023-03-17T12:11:43.317Z,15.95
2023-03-17T12:14:52.267Z,16.05
2023-03-17T12:17:57.769Z,15.69
2023-03-17T12:21:02.074Z,15.74
2023-03-17T12:24:12.808Z,16.17
2023-03-17T12:27:15.868Z,16.11
2023-03-17T12:30:29.098Z,15.80
2023-03-17T12:33:38.877Z,15.84
2023-03-17T12:36:41.573Z,15.87
2023-03-17T12:39:50.307Z,16.03
2023-03-17T12:43:01.676Z,15.82
2023-03-17T12:46:42.218Z,16.03
2023-03-17T12:50:05.880Z,16.00
2023-03-17T12:53:24.704Z,15.82
2023-03-17T12:56:29.997Z,15.95
2023-03-17T12:59:35.112Z,16.05
2023-03-17T13:02:39.175Z,16.16
2023-03-17T13:05:46.697Z,16.29
2023-03-17T13:08:51.706Z,16.20
2023-03-17T13:11:55.764Z,16.32
2023-03-17T13:14:58.570Z,16.07
2023-03-17T13:18:49.765Z,16.43
2023-03-17T13:22:13.771Z,16.44
2023-03-17T13:25:31.336Z,16.32
2023-03-17T13:28:42.598Z,16.27
2023-03-17T13:31:44.859Z,16.13
2023-03-17T13:34:50.545Z,16.28
2023-03-17T13:38:12.908Z,16.10
2023-03-17T13:41:32.307Z,16.07
2023-03-17T13:44:47.667Z,16.18
2023-03-17T13:47:51.385Z,16.10
2023-03-17T13:50:59.513Z,16.13
2023-03-17T13:54:09.185Z,16.13
2023-03-17T13:57:26.910Z,16.14
2023-03-17T14:00:33.031Z,16.01
2023-03-17T14:03:40.779Z,15.98
2023-03-17T14:06:42.675Z,15.91
2023-03-17T14:09:45.329Z,15.78
2023-03-17T14:12:58.394Z,15.77
2023-03-17T14:16:04.814Z,15.81
2023-03-17T14:19:18.000Z,15.75
2023-03-17T14:22:22.173Z,15.68
2023-03-17T14:25:26.579Z,15.59
2023-03-17T14:28:33.305Z,15.68
2023-03-17T14:31:35.281Z,15.61
2023-03-17T14:34:42.942Z,15.65
2023-03-17T14:37:45.424Z,15.67
2023-03-17T14:40:47.878Z,15.70
2023-03-17T14:43:52.439Z,15.67
2023-03-17T14:47:02.254Z,15.66
2023-03-17T14:50:18.126Z,15.57
2023-03-17T14:53:20.488Z,15.53
2023-03-17T14:56:24.113Z,15.51
2023-03-17T14:59:31.911Z,15.29
2023-03-17T15:02:35.486Z,15.46
2023-03-17T15:05:39.731Z,15.46
2023-03-17T15:08:46.572Z,15.40
2023-03-17T15:11:49.142Z,15.22
2023-03-17T15:14:54.321Z,15.16
2023-03-17T15:17:57.841Z,15.14
2023-03-17T15:21:02.593Z,15.17
2023-03-17T15:24:20.098Z,15.09
2023-03-17T15:27:21.756Z,14.88
2023-03-17T15:30:29.486Z,14.96
2023-03-17T15:33:39.259Z,14.89
2023-03-17T15:36:43.564Z,14.95
2023-03-17T15:39:45.698Z,14.96
2023-03-17T15:42:47.597Z,14.98
2023-03-17T15:45:55.280Z,15.03
2023-03-17T15:48:56.991Z,14.95
2023-03-17T15:51:58.753Z,14.89
2023-03-17T15:55:00.661Z,14.90
2023-03-17T15:58:02.702Z,14.92
2023-03-17T16:01:06.481Z,14.85
2023-03-17T16:04:09.086Z,14.75
2023-03-17T16:07:12.266Z,14.68
2023-03-17T16:10:18.494Z,14.59
2023-03-17T16:13:20.632Z,14.52
2023-03-17T16:16:30.246Z,14.43
2023-03-17T16:19:32.872Z,14.47
2023-03-17T16:22:38.149Z,14.32
2023-03-17T16:25:40.026Z,14.28
2023-03-17T16:28:42.298Z,14.24
2023-03-17T16:31:51.683Z,14.36
2023-03-17T16:34:55.046Z,14.19
2023-03-17T16:37:56.899Z,13.85
2023-03-17T16:41:01.131Z,13.84
2023-03-17T16:44:03.808Z,13.54
2023-03-17T16:47:10.068Z,13.48
2023-03-17T16:50:16.439Z,13.30
2023-03-17T16:53:18.326Z,13.11
2023-03-17T16:56:22.590Z,13.03
2023-03-17T16:59:28.212Z,13.03
2023-03-17T17:02:31.579Z,13.04
2023-03-17T17:05:34.590Z,12.93
2023-03-17T17:08:37.261Z,12.82
2023-03-17T17:11:39.019Z,12.63
2023-03-17T17:14:40.658Z,12.58
2023-03-17T17:17:46.624Z,12.53
2023-03-17T17:20:49.241Z,12.47
2023-03-17T17:23:53.030Z,12.42
2023-03-17T17:26:55.188Z,12.32
2023-03-17T17:29:57.365Z,12.22
2023-03-17T17:33:01.093Z,12.05
2023-03-17T17:36:04.356Z,12.47
2023-03-17T17:39:06.676Z,12.25
2023-03-17T17:42:10.869Z,12.15
2023-03-17T17:45:13.557Z,11.93
2023-03-17T17:48:18.192Z,11.96
2023-03-17T17:51:19.952Z,11.98
2023-03-17T17:54:21.843Z,12.09
2023-03-17T17:57:23.665Z,12.42
2023-03-17T18:00:27.484Z,12.27
2023-03-17T18:03:32.129Z,12.29
2023-03-17T18:06:33.882Z,12.24
2023-03-17T18:09:36.025Z,12.06
2023-03-17T18:12:38.009Z,12.18
2023-03-17T18:15:39.994Z,11.93
2023-03-17T18:18:45.588Z,12.19
2023-03-17T18:21:47.661Z,12.33
2023-03-17T18:24:49.856Z,12.08
2023-03-17T18:27:51.510Z,11.73
2023-03-17T18:30:53.964Z,11.51
2023-03-17T18:33:59.802Z,11.47
2023-03-17T18:37:02.432Z,11.26
2023-03-17T18:40:14.343Z,11.17
2023-03-17T18:43:17.204Z,11.20
2023-03-17T18:46:18.940Z,11.19
2023-03-17T18:49:25.134Z,11.08
2023-03-17T18:52:31.349Z,11.11
2023-03-17T18:55:33.187Z,11.01
2023-03-17T18:58:36.288Z,10.95
2023-03-17T19:01:38.305Z,10.82
2023-03-17T19:04:46.013Z,10.74
2023-03-17T19:07:47.958Z,10.85
2023-03-17T19:10:50.395Z,11.04
2023-03-17T19:13:53.713Z,10.80
2023-03-17T19:16:55.565Z,10.80
2023-03-17T19:19:59.156Z,10.65
2023-03-17T19:23:01.199Z,10.71
2023-03-17T19:26:04.619Z,10.68
2023-03-17T19:29:09.700Z,10.56
2023-03-17T19:32:12.098Z,10.43
2023-03-17T19:35:15.360Z,10.44
2023-03-17T19:38:17.274Z,10.53
2023-03-17T19:41:19.100Z,10.52
2023-03-17T19:44:22.722Z,10.37
2023-03-17T19:47:24.865Z,10.52
2023-03-17T19:50:28.174Z,10.39
2023-03-17T19:53:29.856Z,10.33
2023-03-17T19:56:32.120Z,10.45
2023-03-17T19:59:33.912Z,10.39
2023-03-17T20:02:35.896Z,10.29
2023-03-17T20:05:39.420Z,10.29
2023-03-17T20:08:42.916Z,10.36
2023-03-17T20:11:44.587Z,10.30
2023-03-17T20:14:46.958Z,10.28
2023-03-17T20:17:49.057Z,10.19
2023-03-17T20:20:53.222Z,10.16
2023-03-17T20:23:55.192Z,10.08
2023-03-17T20:26:58.272Z,10.08
2023-03-17T20:30:00.172Z,10.09
2023-03-17T20:33:02.032Z,10.09
2023-03-17T20:36:06.237Z,10.16
2023-03-17T20:39:09.273Z,10.27
2023-03-17T20:42:14.504Z,10.46
2023-03-17T20:45:16.490Z,10.57
2023-03-17T20:48:18.273Z,10.71
2023-03-17T20:51:21.619Z,10.57
2023-03-17T20:54:23.496Z,10.71
2023-03-17T20:57:25.206Z,10.69
2023-03-17T21:00:27.232Z,10.69
2023-03-17T21:03:29.858Z,10.54
2023-03-17T21:06:34.226Z,10.43
2023-03-17T21:09:36.049Z,10.35
2023-03-17T21:12:38.125Z,10.36
2023-03-17T21:15:41.042Z,10.28
2023-03-17T21:18:42.785Z,10.23
2023-03-17T21:21:46.016Z,10.05
2023-03-17T21:24:47.709Z,10.16
2023-03-17T21:27:50.356Z,10.32
2023-03-17T21:30:52.207Z,10.31
2023-03-17T21:33:53.922Z,10.39
2023-03-17T21:36:59.160Z,10.37
2023-03-17T21:40:00.860Z,10.33
2023-03-17T21:43:02.860Z,10.57
2023-03-17T21:46:05.393Z,10.80
2023-03-17T21:49:07.021Z,10.86
2023-03-17T21:52:10.696Z,10.85
2023-03-17T21:55:12.795Z,10.66
2023-03-17T21:58:14.527Z,10.83
2023-03-17T22:01:16.646Z,10.84
2023-03-17T22:04:18.628Z,10.81
2023-03-17T22:07:22.175Z,10.90
2023-03-17T22:10:23.979Z,10.70
2023-03-17T22:13:26.028Z,10.84
2023-03-17T22:16:28.010Z,10.78
2023-03-17T22:19:31.823Z,10.79
2023-03-17T22:22:35.937Z,10.94
2023-03-17T22:25:37.670Z,11.13
2023-03-17T22:28:40.619Z,10.98
2023-03-17T22:31:42.726Z,11.09
2023-03-17T22:34:45.199Z,11.10
2023-03-17T22:37:48.395Z,11.43
2023-03-17T22:41:00.107Z,11.28
2023-03-17T22:44:02.528Z,11.47
2023-03-17T22:47:04.938Z,11.44
2023-03-17T22:50:07.972Z,11.60
2023-03-17T22:53:11.454Z,11.69
2023-03-17T22:56:15.774Z,11.56
2023-03-17T22:59:18.971Z,11.55
2023-03-17T23:02:21.205Z,11.35
2023-03-17T23:05:23.042Z,11.17
2023-03-17T23:08:29.331Z,11.13
2023-03-17T23:11:31.063Z,11.05
2023-03-17T23:14:32.734Z,10.89
2023-03-17T23:17:36.912Z,10.64
2023-03-17T23:20:42.544Z,10.59
2023-03-17T23:23:45.674Z,10.49
2023-03-17T23:26:47.413Z,10.40
2023-03-17T23:29:49.133Z,10.61
2023-03-17T23:32:51.025Z,10.59
2023-03-17T23:35:53.005Z,10.51
2023-03-17T23:38:56.677Z,10.41
2023-03-17T23:41:58.830Z,10.49
2023-03-17T23:45:00.627Z,10.44
2023-03-17T23:48:02.952Z,10.49
2023-03-17T23:51:05.140Z,10.53
2023-03-17T23:54:09.350Z,10.77
2023-03-17T23:57:12.205Z,11.04
